Time;durP1;ratioP1;P1;durP2;ratioP2;P2;SDS_P1;SDS_P2;PMS_P1;PMS_P2;Temp;Humidity;BMP_temperature;BMP_pressure;BME280_temperature;BME280_humidity;BME280_pressure;Samples;Min_cycle;Max_cycle;Signal;HPM_P1;HPM_P2
2022/11/02 00:00:44;;;;;;;4.85;2.20;;;18.60;67.80;;;;;;6316195;22;20154;-83
2022/11/02 00:03:14;;;;;;;2.67;2.13;;;18.60;67.90;;;;;;6263595;22;20140;-82
2022/11/02 00:05:39;;;;;;;5.55;2.30;;;18.60;67.80;;;;;;6235690;22;20191;-84
2022/11/02 00:08:05;;;;;;;5.15;2.10;;;18.60;67.80;;;;;;6237655;22;20509;-83
2022/11/02 00:10:35;;;;;;;4.65;2.15;;;18.60;67.80;;;;;;6263452;22;20189;-84
2022/11/02 00:13:07;;;;;;;3.88;2.10;;;18.60;67.90;;;;;;6186849;22;20586;-81
2022/11/02 00:15:34;;;;;;;3.17;2.10;;;18.60;67.90;;;;;;6186599;22;20282;-82
2022/11/02 00:18:02;;;;;;;4.18;2.17;;;18.60;67.90;;;;;;6262677;22;20152;-84
2022/11/02 00:20:28;;;;;;;3.95;2.10;;;18.60;67.80;;;;;;6262898;22;20154;-82
2022/11/02 00:22:57;;;;;;;4.20;2.00;;;18.60;67.90;;;;;;6262843;22;20175;-83
2022/11/02 00:25:23;;;;;;;4.40;2.38;;;18.60;68.60;;;;;;6288139;22;20188;-82
2022/11/02 00:27:53;;;;;;;3.22;2.05;;;18.60;67.90;;;;;;6261754;22;20151;-83
2022/11/02 00:30:24;;;;;;;5.03;2.10;;;18.60;67.90;;;;;;6186304;22;20155;-82
2022/11/02 00:32:53;;;;;;;4.07;1.90;;;18.60;67.90;;;;;;6186468;22;20148;-82
2022/11/02 00:35:23;;;;;;;4.38;2.10;;;18.50;67.90;;;;;;6211341;22;20163;-83
2022/11/02 00:37:53;;;;;;;4.38;2.10;;;18.60;68.00;;;;;;6236431;22;20156;-84
2022/11/02 00:40:19;;;;;;;4.13;2.20;;;18.50;67.90;;;;;;6211405;22;20158;-83
2022/11/02 00:42:52;;;;;;;3.70;2.40;;;18.60;68.90;;;;;;6288819;22;20174;-82
2022/11/02 00:45:21;;;;;;;4.55;1.77;;;18.50;68.00;;;;;;6238274;22;20190;-81
2022/11/02 00:47:53;;;;;;;4.63;1.90;;;18.50;68.10;;;;;;6239626;22;20148;-83
2022/11/02 00:50:19;;;;;;;4.20;1.92;;;18.50;68.00;;;;;;6213843;22;20175;-83
2022/11/02 00:52:45;;;;;;;4.68;2.20;;;18.60;68.10;;;;;;6290661;22;20552;-84
2022/11/02 00:55:11;;;;;;;4.18;2.15;;;18.50;68.10;;;;;;6263593;22;20155;-84
2022/11/02 00:57:44;;;;;;;3.30;2.10;;;18.50;68.00;;;;;;6286999;22;20135;-82
2022/11/02 01:00:11;;;;;;;2.22;1.92;;;18.50;68.10;;;;;;6210002;22;20160;-82
2022/11/02 01:02:43;;;;;;;4.90;2.03;;;18.50;68.10;;;;;;6261453;22;20601;-84
2022/11/02 01:05:09;;;;;;;2.55;1.90;;;18.50;68.10;;;;;;6210099;22;20176;-83
2022/11/02 01:07:36;;;;;;;4.32;2.15;;;18.50;68.10;;;;;;6313658;22;20207;-84
2022/11/02 01:10:04;;;;;;;3.03;2.17;;;18.50;68.10;;;;;;6287285;22;20133;-84
2022/11/02 01:12:38;;;;;;;2.95;2.13;;;18.50;68.20;;;;;;6287239;22;20148;-82
2022/11/02 01:15:06;;;;;;;3.55;2.10;;;18.50;68.20;;;;;;6210076;22;20717;-81
2022/11/02 01:17:33;;;;;;;3.75;1.83;;;18.50;68.10;;;;;;6287246;22;20563;-81
2022/11/02 01:19:59;;;;;;;3.58;2.22;;;18.50;68.20;;;;;;6286638;22;20203;-82
2022/11/02 01:22:24;;;;;;;6.40;2.22;;;18.50;68.30;;;;;;6286575;22;20136;-81
2022/11/02 01:24:50;;;;;;;3.67;2.40;;;18.50;68.30;;;;;;6260450;22;20467;-82
2022/11/02 01:27:16;;;;;;;3.28;1.90;;;18.50;68.30;;;;;;6286425;22;20144;-84
2022/11/02 01:29:42;;;;;;;3.67;1.95;;;18.50;68.30;;;;;;6286411;22;20516;-83
2022/11/02 01:32:12;;;;;;;4.50;2.05;;;18.50;68.40;;;;;;6286380;22;20128;-82
2022/11/02 01:34:38;;;;;;;4.55;1.90;;;18.50;68.30;;;;;;6209882;22;20235;-84
2022/11/02 01:37:04;;;;;;;3.92;2.15;;;18.40;68.20;;;;;;6286404;22;20132;-82
2022/11/02 01:39:30;;;;;;;4.13;2.15;;;18.50;68.30;;;;;;6286142;22;20132;-83
2022/11/02 01:42:03;;;;;;;4.35;2.30;;;18.50;68.40;;;;;;6313563;22;20219;-83
2022/11/02 01:44:33;;;;;;;3.60;1.98;;;18.50;68.40;;;;;;6210235;22;20151;-81
2022/11/02 01:47:13;;;;;;;3.03;2.10;;;18.50;68.30;;;;;;6286288;22;20180;-83
2022/11/02 01:49:41;;;;;;;5.38;2.13;;;18.50;68.40;;;;;;6286974;22;20132;-83
2022/11/02 01:52:10;;;;;;;3.05;2.03;;;18.50;68.40;;;;;;6261076;22;20151;-84
2022/11/02 01:54:46;;;;;;;5.53;2.10;;;18.40;68.30;;;;;;6286651;22;20154;-83
2022/11/02 01:57:14;;;;;;;4.22;2.13;;;18.50;68.30;;;;;;6236084;22;20630;-82
2022/11/02 02:00:01;;;;;;;4.72;2.10;;;18.40;69.20;;;;;;6260691;22;20151;-82
2022/11/02 02:02:32;;;;;;;6.38;2.38;;;18.50;68.50;;;;;;6286297;22;20633;-81
2022/11/02 02:05:03;;;;;;;2.30;1.75;;;18.40;68.30;;;;;;6235100;22;20148;-82
2022/11/02 02:07:30;;;;;;;3.97;2.10;;;18.50;68.40;;;;;;6309602;22;20229;-82
2022/11/02 02:09:56;;;;;;;4.65;2.13;;;18.50;68.40;;;;;;6311989;22;20131;-83
2022/11/02 02:12:22;;;;;;;5.47;2.22;;;18.50;68.40;;;;;;6313853;22;20199;-84
2022/11/02 02:14:48;;;;;;;3.10;2.08;;;18.50;68.40;;;;;;6286421;22;20200;-81
2022/11/02 02:17:25;;;;;;;4.60;2.22;;;18.40;68.40;;;;;;6312070;22;20128;-84
2022/11/02 02:20:06;;;;;;;5.00;1.92;;;18.50;68.50;;;;;;6311988;22;20136;-83
2022/11/02 02:23:06;;;;;;;2.83;2.08;;;18.40;68.50;;;;;;6239641;22;20152;-83
2022/11/02 02:25:50;;;;;;;2.80;2.00;;;18.40;68.50;;;;;;6312011;22;20184;-82
2022/11/02 02:28:20;;;;;;;3.92;2.13;;;18.40;68.50;;;;;;6312160;22;20128;-81
2022/11/02 02:30:51;;;;;;;3.47;1.83;;;18.40;68.50;;;;;;6287239;22;20140;-84
2022/11/02 02:33:33;;;;;;;3.25;2.00;;;18.40;68.50;;;;;;6285768;22;20140;-82
2022/11/02 02:36:09;;;;;;;4.82;2.22;;;18.40;68.50;;;;;;6264449;22;20143;-84
2022/11/02 02:38:43;;;;;;;2.72;2.08;;;18.50;68.50;;;;;;6312968;22;20246;-83
2022/11/02 02:41:30;;;;;;;2.78;2.00;;;18.40;68.50;;;;;;6312565;22;20133;-81
2022/11/02 02:43:56;;;;;;;3.63;1.83;;;18.40;68.60;;;;;;6313506;22;20204;-83
2022/11/02 02:46:28;;;;;;;6.60;2.20;;;18.40;68.50;;;;;;6312815;22;20168;-81
2022/11/02 02:48:59;;;;;;;3.85;2.05;;;18.40;68.60;;;;;;6286112;22;20140;-84
2022/11/02 02:51:29;;;;;;;3.05;1.80;;;18.40;68.60;;;;;;6235668;22;20602;-81
2022/11/02 02:54:01;;;;;;;2.88;1.98;;;18.40;68.60;;;;;;6315170;22;20128;-81
2022/11/02 02:56:28;;;;;;;2.55;1.63;;;18.40;68.60;;;;;;6315426;22;20136;-82
2022/11/02 02:59:01;;;;;;;3.65;1.95;;;18.40;68.60;;;;;;6289951;22;20172;-81
2022/11/02 03:01:27;;;;;;;4.50;2.25;;;18.40;68.60;;;;;;6290478;22;20144;-84
2022/11/02 03:03:53;;;;;;;3.65;1.98;;;18.40;68.70;;;;;;6315622;22;20633;-81
2022/11/02 03:06:23;;;;;;;2.70;1.80;;;18.40;68.60;;;;;;6289846;22;20187;-83
2022/11/02 03:09:04;;;;;;;3.10;2.38;;;18.40;68.60;;;;;;6315422;22;20144;-84
2022/11/02 03:11:37;;;;;;;4.28;2.00;;;18.50;68.70;;;;;;6317829;22;20136;-82
2022/11/02 03:14:21;;;;;;;6.18;2.25;;;18.40;68.60;;;;;;6239077;22;20144;-82
2022/11/02 03:17:00;;;;;;;3.80;2.00;;;18.40;68.70;;;;;;6268388;22;20152;-81
2022/11/02 03:19:43;;;;;;;4.05;2.00;;;18.40;68.70;;;;;;6315684;22;20186;-82
2022/11/02 03:22:20;;;;;;;3.42;2.00;;;18.40;68.70;;;;;;6241452;22;20148;-83
2022/11/02 03:25:11;;;;;;;3.97;2.20;;;18.40;68.70;;;;;;6265005;22;20483;-81
2022/11/02 03:27:50;;;;;;;2.97;2.20;;;18.40;68.70;;;;;;6267771;22;20186;-84
2022/11/02 03:30:18;;;;;;;5.25;2.13;;;18.40;68.70;;;;;;6267254;22;20152;-84
2022/11/02 03:32:51;;;;;;;4.20;2.15;;;18.40;68.70;;;;;;6315551;22;20150;-85
2022/11/02 03:35:34;;;;;;;2.22;1.83;;;18.40;68.70;;;;;;6289435;22;20575;-82
2022/11/02 03:38:06;;;;;;;3.22;2.15;;;18.40;68.70;;;;;;6267512;22;20148;-83
2022/11/02 03:40:38;;;;;;;3.03;2.00;;;18.40;68.60;;;;;;6317216;22;20223;-82
2022/11/02 03:43:10;;;;;;;5.10;2.08;;;18.40;68.70;;;;;;6238530;22;20183;-84
2022/11/02 03:45:42;;;;;;;2.83;2.08;;;18.40;68.70;;;;;;6263042;22;20645;-82
2022/11/02 03:48:10;;;;;;;3.03;1.90;;;18.30;68.60;;;;;;6238803;22;20178;-83
2022/11/02 03:50:41;;;;;;;4.03;2.47;;;18.40;68.80;;;;;;6315527;22;20151;-80
2022/11/02 03:53:09;;;;;;;2.25;1.90;;;18.40;68.80;;;;;;6238447;22;20155;-83
2022/11/02 03:55:38;;;;;;;2.30;1.98;;;18.40;68.80;;;;;;6317409;22;20132;-83
2022/11/02 03:58:05;;;;;;;3.58;1.90;;;18.40;68.80;;;;;;6289817;22;20144;-83
2022/11/02 04:00:33;;;;;;;3.72;2.20;;;18.40;68.80;;;;;;6315515;22;20163;-82
2022/11/02 04:03:01;;;;;;;2.97;1.70;;;18.30;68.70;;;;;;6289174;22;20144;-83
2022/11/02 04:05:30;;;;;;;3.80;2.10;;;18.40;68.60;;;;;;6314023;22;20170;-83
2022/11/02 04:14:36;;;;;;;4.53;2.10;;;18.40;68.70;;;;;;6291851;22;20519;-82
2022/11/02 04:16:09;;;;;;;2.22;1.70;;;18.30;68.70;;;;;;6315775;22;20136;-82
2022/11/02 04:21:24;;;;;;;5.55;2.03;;;18.40;68.70;;;;;;6315755;22;20139;-81
2022/11/02 04:26:30;;;;;;;2.55;2.00;;;18.40;68.70;;;;;;6291051;22;20202;-81
2022/11/02 04:28:56;;;;;;;3.22;1.98;;;18.40;68.60;;;;;;6287868;22;20154;-81
2022/11/02 04:31:22;;;;;;;3.85;1.85;;;18.40;68.80;;;;;;6262295;22;20170;-83
2022/11/02 04:33:53;;;;;;;3.00;1.77;;;18.40;68.70;;;;;;6288387;22;20160;-81
2022/11/02 04:36:19;;;;;;;3.15;1.95;;;18.40;68.70;;;;;;6185548;22;20208;-83
2022/11/02 04:38:45;;;;;;;4.75;2.30;;;18.40;68.80;;;;;;6287586;22;20139;-83
2022/11/02 04:43:59;;;;;;;3.75;2.03;;;18.40;68.90;;;;;;6290230;22;20213;-82
2022/11/02 04:46:26;;;;;;;1.67;1.58;;;18.40;68.90;;;;;;6210739;22;20179;-84
2022/11/02 04:48:52;;;;;;;5.53;1.95;;;18.40;68.90;;;;;;6287459;22;20132;-84
2022/11/02 04:51:20;;;;;;;5.10;2.00;;;18.40;68.90;;;;;;6261692;22;20140;-84
2022/11/02 04:53:47;;;;;;;3.55;1.83;;;18.40;68.80;;;;;;6314989;22;20131;-84
2022/11/02 04:56:13;;;;;;;2.45;1.77;;;18.40;68.90;;;;;;6287543;22;20140;-84
2022/11/02 04:58:39;;;;;;;2.42;2.05;;;18.40;68.90;;;;;;6286969;22;20148;-83
2022/11/02 05:01:13;;;;;;;4.50;2.20;;;18.40;68.90;;;;;;6287018;22;20139;-82
2022/11/02 05:03:39;;;;;;;3.67;2.00;;;18.40;68.90;;;;;;6287508;22;20140;-81
2022/11/02 05:06:05;;;;;;;3.80;1.90;;;18.40;68.90;;;;;;6291307;22;20264;-82
2022/11/02 05:08:31;;;;;;;2.28;1.95;;;18.40;68.90;;;;;;6261676;22;20160;-81
2022/11/02 05:11:01;;;;;;;2.45;2.00;;;18.40;69.00;;;;;;6312928;22;20136;-83
2022/11/02 05:13:27;;;;;;;2.03;1.60;;;18.40;69.10;;;;;;6210812;22;20168;-84
2022/11/02 05:15:56;;;;;;;3.10;1.98;;;18.40;69.20;;;;;;6287057;22;20487;-82
2022/11/02 05:18:26;;;;;;;5.30;2.00;;;18.40;69.00;;;;;;6314818;22;20140;-82
2022/11/02 05:20:59;;;;;;;2.33;1.80;;;18.40;69.10;;;;;;6235890;22;20349;-82
2022/11/02 05:23:29;;;;;;;2.95;2.00;;;18.40;69.00;;;;;;6235989;22;20645;-82
2022/11/02 05:25:58;;;;;;;2.33;1.95;;;18.40;69.10;;;;;;6211097;22;20183;-84
2022/11/02 05:28:28;;;;;;;2.33;2.03;;;18.40;69.10;;;;;;6286549;22;20201;-81
2022/11/02 05:30:56;;;;;;;2.75;1.90;;;18.40;69.10;;;;;;6210828;22;20231;-82
2022/11/02 05:33:22;;;;;;;2.63;1.70;;;18.40;69.10;;;;;;6312862;22;20133;-82
2022/11/02 05:35:53;;;;;;;3.58;2.00;;;18.40;69.10;;;;;;6287061;22;20170;-83
2022/11/02 05:38:19;;;;;;;3.63;1.90;;;18.40;69.10;;;;;;6261066;22;20152;-82
2022/11/02 05:40:57;;;;;;;2.72;1.80;;;18.30;69.10;;;;;;6312359;22;20132;-83
2022/11/02 05:43:28;;;;;;;2.75;2.00;;;18.30;69.10;;;;;;6313053;22;20214;-80
2022/11/02 05:45:56;;;;;;;3.05;1.70;;;18.40;69.10;;;;;;6210410;22;20184;-82
2022/11/02 05:48:22;;;;;;;2.63;1.90;;;18.30;69.00;;;;;;6285958;22;20457;-82
2022/11/02 05:50:48;;;;;;;3.22;2.00;;;18.30;69.10;;;;;;6286639;22;20559;-83
2022/11/02 05:53:18;;;;;;;3.05;1.90;;;18.30;69.00;;;;;;6312331;22;20203;-83
2022/11/02 05:55:44;;;;;;;2.58;2.00;;;18.40;69.10;;;;;;6210538;22;20201;-81
2022/11/02 05:58:10;;;;;;;1.90;1.70;;;18.30;68.90;;;;;;6312566;22;20635;-84
2022/11/02 06:00:36;;;;;;;2.33;1.90;;;18.30;69.00;;;;;;6286482;22;20144;-83
2022/11/02 06:03:07;;;;;;;2.78;2.20;;;18.30;68.50;;;;;;6311553;22;20132;-84
2022/11/02 06:05:32;;;;;;;2.78;1.90;;;18.30;68.70;;;;;;6236871;22;20171;-83
2022/11/02 06:07:59;;;;;;;3.03;2.08;;;18.30;68.90;;;;;;6312407;22;20201;-82
2022/11/02 06:10:26;;;;;;;2.10;1.90;;;18.30;68.90;;;;;;6313064;22;20492;-82
2022/11/02 06:13:01;;;;;;;3.45;1.98;;;18.30;69.00;;;;;;6288065;22;20203;-82
2022/11/02 06:15:27;;;;;;;2.63;1.83;;;18.30;69.00;;;;;;6234466;22;20151;-82
2022/11/02 06:17:53;;;;;;;2.63;2.00;;;18.40;69.10;;;;;;6312357;22;20136;-84
2022/11/02 06:20:19;;;;;;;2.75;1.60;;;18.40;68.70;;;;;;6310439;22;20143;-85
2022/11/02 06:22:45;;;;;;;2.38;1.80;;;18.40;68.30;;;;;;6284071;22;20152;-83
2022/11/02 06:25:11;;;;;;;2.38;2.00;;;18.40;68.30;;;;;;6282017;22;20211;-80
2022/11/02 06:27:36;;;;;;;3.25;1.80;;;18.40;68.40;;;;;;6282787;22;20128;-82
2022/11/02 06:30:03;;;;;;;3.85;1.75;;;18.50;68.40;;;;;;6258548;22;20156;-82
2022/11/02 06:32:29;;;;;;;2.17;1.75;;;18.50;68.60;;;;;;6310090;22;20143;-82
2022/11/02 06:34:59;;;;;;;3.30;1.60;;;18.50;68.60;;;;;;6309525;22;20153;-82
2022/11/02 06:37:25;;;;;;;2.63;2.17;;;18.40;68.10;;;;;;6282732;22;20152;-82
2022/11/02 06:39:54;;;;;;;3.80;1.90;;;18.50;68.50;;;;;;6283066;22;20147;-82
2022/11/02 06:42:20;;;;;;;3.17;1.80;;;18.50;68.40;;;;;;6230592;22;20177;-82
2022/11/02 06:44:46;;;;;;;3.10;1.85;;;18.50;68.30;;;;;;6283208;22;20215;-83
2022/11/02 06:47:12;;;;;;;3.08;1.92;;;18.50;68.40;;;;;;6308898;22;20206;-83
2022/11/02 06:49:38;;;;;;;3.90;1.80;;;18.50;68.10;;;;;;6283474;22;20534;-83
2022/11/02 06:52:04;;;;;;;2.83;1.85;;;18.50;68.30;;;;;;6310963;22;20152;-82
2022/11/02 06:54:34;;;;;;;2.78;2.38;;;18.50;68.00;;;;;;6308581;22;20171;-82
2022/11/02 06:57:03;;;;;;;3.65;1.83;;;18.50;68.30;;;;;;6231522;22;20227;-84
2022/11/02 06:59:29;;;;;;;3.95;2.25;;;18.60;68.30;;;;;;6206766;22;20186;-82
2022/11/02 07:01:57;;;;;;;2.63;1.80;;;18.50;68.00;;;;;;6283403;22;20471;-84
2022/11/02 07:04:26;;;;;;;2.00;1.80;;;18.50;68.40;;;;;;6231315;22;20166;-82
2022/11/02 07:06:51;;;;;;;2.50;1.90;;;18.50;68.10;;;;;;6231103;22;20199;-83
2022/11/02 07:09:19;;;;;;;2.70;2.00;;;18.60;68.20;;;;;;6282867;22;20148;-83
2022/11/02 07:11:47;;;;;;;2.20;1.80;;;18.50;68.10;;;;;;6231537;22;20155;-83
2022/11/02 07:14:14;;;;;;;2.53;1.83;;;18.50;68.00;;;;;;6231565;22;20148;-81
2022/11/02 07:16:42;;;;;;;4.22;2.00;;;18.60;68.00;;;;;;6232288;22;20599;-84
2022/11/02 07:19:09;;;;;;;4.20;2.00;;;18.60;67.90;;;;;;6283345;22;20144;-83
2022/11/02 07:21:36;;;;;;;2.22;1.90;;;18.50;68.30;;;;;;6206325;22;20148;-84
2022/11/02 07:24:05;;;;;;;1.92;1.75;;;18.50;68.00;;;;;;6260278;22;20456;-84
2022/11/02 07:26:31;;;;;;;2.65;2.05;;;18.60;68.70;;;;;;6209313;22;20180;-81
2022/11/02 07:28:59;;;;;;;3.35;1.88;;;18.60;67.90;;;;;;6311746;22;20189;-84
2022/11/02 07:31:24;;;;;;;2.30;2.00;;;18.60;68.00;;;;;;6286845;22;20125;-84
2022/11/02 07:33:50;;;;;;;3.53;1.90;;;18.50;68.10;;;;;;6284119;22;20223;-80
2022/11/02 07:36:16;;;;;;;3.72;2.13;;;18.60;67.80;;;;;;6283035;22;20178;-83
2022/11/02 07:38:41;;;;;;;2.47;1.95;;;18.60;68.10;;;;;;6257992;22;20231;-81
2022/11/02 07:41:07;;;;;;;2.40;1.88;;;18.60;68.00;;;;;;6258735;22;20144;-83
2022/11/02 07:43:41;;;;;;;3.85;2.00;;;18.60;68.30;;;;;;6310730;22;20147;-80
2022/11/02 07:46:13;;;;;;;2.50;1.83;;;18.50;68.20;;;;;;6230919;22;20479;-82
2022/11/02 07:48:39;;;;;;;2.85;1.90;;;18.60;68.20;;;;;;6257474;22;20240;-83
2022/11/02 07:51:06;;;;;;;5.63;2.03;;;18.60;68.00;;;;;;6309883;22;20128;-82
2022/11/02 07:53:32;;;;;;;2.20;1.92;;;18.60;68.40;;;;;;6283978;22;20176;-81
2022/11/02 07:55:59;;;;;;;1.95;1.63;;;18.60;68.20;;;;;;6282282;22;20133;-83
2022/11/02 07:58:25;;;;;;;2.70;1.90;;;18.60;68.00;;;;;;6282238;22;20223;-83
2022/11/02 08:00:53;;;;;;;2.35;1.80;;;18.60;68.00;;;;;;6283315;22;20140;-83
2022/11/02 08:03:20;;;;;;;2.90;1.85;;;18.60;68.40;;;;;;6283703;22;20129;-82
2022/11/02 08:05:45;;;;;;;2.03;1.77;;;18.60;68.50;;;;;;6291664;22;20171;-84
2022/11/02 08:08:14;;;;;;;2.58;2.03;;;18.60;68.40;;;;;;6299954;22;20245;-81
2022/11/02 08:10:44;;;;;;;2.60;2.00;;;18.60;68.20;;;;;;6317755;22;20448;-82
2022/11/02 08:13:20;;;;;;;4.43;2.25;;;18.60;68.00;;;;;;6207633;22;20456;-83
2022/11/02 08:15:52;;;;;;;2.78;2.10;;;18.60;68.20;;;;;;6207891;22;20183;-84
2022/11/02 08:18:23;;;;;;;2.95;1.88;;;18.60;68.40;;;;;;6207286;22;20242;-83
2022/11/02 08:20:54;;;;;;;2.90;1.75;;;18.60;68.30;;;;;;6207822;22;20151;-81
2022/11/02 08:23:23;;;;;;;2.47;1.80;;;18.60;68.30;;;;;;6208881;22;20156;-82
2022/11/02 08:25:49;;;;;;;3.17;1.83;;;18.60;68.00;;;;;;6237730;22;20176;-82
2022/11/02 08:28:26;;;;;;;4.25;1.98;;;18.60;68.20;;;;;;6235909;22;20192;-81
2022/11/02 08:30:57;;;;;;;3.88;2.00;;;18.60;68.30;;;;;;6287332;22;20128;-84
2022/11/02 08:33:24;;;;;;;3.10;1.63;;;18.60;68.00;;;;;;6208378;22;20678;-82
2022/11/02 08:35:53;;;;;;;2.83;1.75;;;18.60;68.00;;;;;;6233543;22;20178;-81
2022/11/02 08:38:21;;;;;;;3.95;1.70;;;18.70;67.90;;;;;;6233506;22;20183;-82
2022/11/02 08:40:47;;;;;;;2.63;1.60;;;18.60;68.20;;;;;;6183375;22;20152;-82
2022/11/02 08:43:13;;;;;;;3.63;1.98;;;18.60;68.00;;;;;;6259058;22;20144;-84
2022/11/02 08:45:40;;;;;;;2.72;1.73;;;18.70;67.80;;;;;;6233901;22;20183;-82
2022/11/02 08:48:08;;;;;;;2.47;1.70;;;18.70;68.10;;;;;;6259565;22;20143;-83
2022/11/02 08:50:34;;;;;;;3.80;1.85;;;18.60;68.10;;;;;;6185174;22;20592;-83
2022/11/02 08:52:59;;;;;;;3.72;2.00;;;18.70;68.00;;;;;;6258900;22;20144;-85
2022/11/02 08:55:29;;;;;;;2.75;1.95;;;18.70;67.20;;;;;;6260198;22;20152;-85
2022/11/02 08:57:59;;;;;;;2.47;1.75;;;18.70;67.90;;;;;;6237390;22;20152;-82
2022/11/02 09:00:35;;;;;;;2.65;1.80;;;18.70;67.90;;;;;;6197713;22;20152;-81
2022/11/02 09:03:07;;;;;;;2.78;1.70;;;18.70;67.60;;;;;;6240847;22;20154;-81
2022/11/02 09:05:42;;;;;;;3.95;2.03;;;18.70;67.80;;;;;;6238926;22;20228;-83
2022/11/02 09:08:11;;;;;;;2.95;1.63;;;18.70;67.90;;;;;;6189454;22;20170;-84
2022/11/02 09:10:37;;;;;;;5.10;1.75;;;18.70;67.60;;;;;;6240048;22;20152;-85
2022/11/02 09:13:05;;;;;;;2.85;1.80;;;18.70;67.60;;;;;;6288977;22;20255;-84
2022/11/02 09:15:35;;;;;;;2.58;1.65;;;18.80;67.90;;;;;;6238200;22;20227;-81
2022/11/02 09:18:03;;;;;;;4.47;1.85;;;18.70;67.80;;;;;;6238459;22;20139;-82
2022/11/02 09:20:29;;;;;;;2.42;1.80;;;18.70;67.40;;;;;;6238558;22;20147;-82
2022/11/02 09:22:56;;;;;;;3.90;1.60;;;18.80;67.40;;;;;;6291735;22;20226;-83
2022/11/02 09:25:26;;;;;;;3.22;1.50;;;18.80;67.10;;;;;;6267501;22;20239;-82
2022/11/02 09:27:53;;;;;;;2.40;1.83;;;18.80;67.50;;;;;;6194025;22;20150;-82
2022/11/02 09:30:28;;;;;;;2.08;1.65;;;18.70;67.60;;;;;;6246131;22;20162;-83
2022/11/02 09:32:55;;;;;;;5.28;1.67;;;18.80;67.50;;;;;;6272235;22;20147;-82
2022/11/02 09:35:23;;;;;;;3.08;1.90;;;18.80;67.60;;;;;;6268087;22;20147;-84
2022/11/02 09:37:49;;;;;;;2.65;1.88;;;18.80;67.90;;;;;;6266127;22;20154;-83
2022/11/02 09:40:23;;;;;;;2.40;1.60;;;18.80;67.90;;;;;;6241111;22;20143;-83
2022/11/02 09:43:04;;;;;;;3.03;2.05;;;18.80;67.90;;;;;;6213858;22;20152;-83
2022/11/02 09:45:52;;;;;;;2.35;1.95;;;18.80;67.80;;;;;;6215900;22;20623;-82
2022/11/02 09:48:32;;;;;;;2.83;1.75;;;18.90;67.50;;;;;;6223534;22;20152;-82
2022/11/02 09:51:09;;;;;;;2.63;1.77;;;18.80;67.60;;;;;;6243572;22;20440;-80
2022/11/02 09:54:02;;;;;;;3.20;1.73;;;18.80;67.60;;;;;;6243780;22;20152;-82
2022/11/02 09:56:28;;;;;;;4.22;1.88;;;18.80;67.60;;;;;;6319888;22;20156;-83
2022/11/02 09:59:14;;;;;;;2.13;1.85;;;18.80;67.60;;;;;;6289506;22;20218;-83
2022/11/02 10:02:09;;;;;;;3.40;1.90;;;18.80;67.60;;;;;;6290931;22;20132;-82
2022/11/02 10:04:54;;;;;;;2.78;2.10;;;18.90;67.70;;;;;;6223231;22;20168;-80
2022/11/02 10:07:42;;;;;;;2.88;1.83;;;18.80;67.50;;;;;;6308457;22;20634;-83
2022/11/02 10:10:27;;;;;;;2.45;1.98;;;18.80;67.70;;;;;;6247328;22;20566;-83
2022/11/02 10:13:12;;;;;;;2.22;1.60;;;18.90;66.90;;;;;;6241029;22;20175;-83
2022/11/02 10:15:48;;;;;;;3.13;1.90;;;18.90;67.20;;;;;;6249263;22;20148;-83
2022/11/02 10:18:24;;;;;;;2.33;2.00;;;18.90;67.50;;;;;;6290965;22;20159;-82
2022/11/02 10:20:55;;;;;;;4.13;1.88;;;18.90;67.20;;;;;;6291510;22;20124;-82
2022/11/02 10:23:26;;;;;;;4.50;1.95;;;18.90;67.50;;;;;;6316443;22;20147;-82
2022/11/02 10:25:58;;;;;;;3.10;1.73;;;18.90;67.30;;;;;;6318011;22;20186;-83
2022/11/02 10:28:26;;;;;;;2.05;1.58;;;18.90;67.60;;;;;;6239516;22;20233;-83
2022/11/02 10:30:53;;;;;;;2.53;1.88;;;18.90;68.30;;;;;;6317831;22;20136;-83
2022/11/02 10:33:31;;;;;;;2.90;1.98;;;18.90;67.10;;;;;;6316321;22;20128;-83
2022/11/02 10:36:17;;;;;;;2.45;2.10;;;18.90;67.50;;;;;;6239085;22;20238;-83
2022/11/02 10:39:02;;;;;;;2.20;1.73;;;18.90;67.50;;;;;;6318847;22;20172;-85
2022/11/02 10:41:43;;;;;;;3.88;1.75;;;18.90;68.50;;;;;;6319601;22;20132;-81
2022/11/02 10:44:32;;;;;;;2.85;1.92;;;18.90;67.20;;;;;;6243584;22;20148;-83
2022/11/02 10:47:03;;;;;;;2.67;1.80;;;19.00;67.60;;;;;;6320027;22;20160;-81
2022/11/02 10:49:57;;;;;;;2.60;1.98;;;18.90;67.40;;;;;;6292471;22;20561;-81
2022/11/02 10:52:23;;;;;;;2.35;1.92;;;19.00;67.60;;;;;;6319427;22;20155;-82
2022/11/02 10:54:50;;;;;;;2.88;1.77;;;19.00;67.40;;;;;;6318764;22;20125;-81
2022/11/02 10:57:21;;;;;;;4.13;2.17;;;19.00;67.70;;;;;;6266598;22;20156;-84
2022/11/02 11:00:24;;;;;;;3.75;1.65;;;18.90;67.60;;;;;;6290084;22;20155;-82
2022/11/02 11:03:04;;;;;;;2.60;1.85;;;18.90;67.60;;;;;;6315148;22;20544;-82
2022/11/02 11:05:32;;;;;;;2.90;1.80;;;18.90;67.20;;;;;;6316428;22;20163;-82
2022/11/02 11:07:58;;;;;;;3.10;1.83;;;18.90;67.30;;;;;;6316846;22;20215;-83
2022/11/02 11:10:24;;;;;;;4.38;2.00;;;19.00;67.40;;;;;;6289476;22;20155;-82
2022/11/02 11:12:50;;;;;;;3.95;2.20;;;18.90;67.70;;;;;;6289067;22;20148;-83
2022/11/02 11:15:31;;;;;;;2.58;1.80;;;19.00;67.60;;;;;;6264852;22;20220;-82
2022/11/02 11:17:57;;;;;;;2.38;1.90;;;18.90;67.70;;;;;;6269921;22;20196;-81
2022/11/02 11:20:33;;;;;;;2.25;1.70;;;18.90;67.80;;;;;;6292911;22;20489;-83
2022/11/02 11:23:20;;;;;;;3.40;2.20;;;18.90;67.90;;;;;;6238972;22;20148;-82
2022/11/02 11:26:00;;;;;;;4.30;2.00;;;18.90;67.80;;;;;;6271652;22;20176;-81
2022/11/02 11:28:30;;;;;;;4.30;1.95;;;18.90;67.90;;;;;;6245417;22;20160;-81
2022/11/02 11:31:13;;;;;;;2.95;1.95;;;18.90;67.80;;;;;;6315607;22;20128;-83
2022/11/02 11:33:42;;;;;;;4.50;2.17;;;18.90;67.70;;;;;;6291226;22;20148;-82
2022/11/02 11:36:09;;;;;;;6.35;2.35;;;19.00;67.70;;;;;;6292415;22;20181;-81
2022/11/02 11:38:35;;;;;;;9.45;2.05;;;19.00;67.60;;;;;;6290528;22;20156;-83
2022/11/02 11:41:05;;;;;;;7.70;2.40;;;19.00;67.70;;;;;;6290897;22;20225;-80
2022/11/02 11:43:49;;;;;;;11.15;2.30;;;19.00;67.70;;;;;;6239844;22;20180;-82
2022/11/02 11:46:15;;;;;;;11.82;2.38;;;18.90;67.60;;;;;;6290557;22;20513;-83
2022/11/02 11:48:46;;;;;;;14.02;2.25;;;19.00;67.80;;;;;;6316924;22;20132;-82
2022/11/02 11:51:43;;;;;;;14.93;2.63;;;19.00;68.00;;;;;;6291310;22;20512;-84
2022/11/02 11:54:23;;;;;;;11.20;2.00;;;18.90;67.70;;;;;;6318070;22;20452;-81
2022/11/02 11:56:55;;;;;;;8.10;2.25;;;18.90;67.60;;;;;;6214446;22;20575;-83
2022/11/02 11:59:48;;;;;;;8.85;2.20;;;19.00;67.60;;;;;;6239801;22;20243;-83
2022/11/02 12:02:22;;;;;;;4.18;2.03;;;19.00;67.30;;;;;;6319226;22;20166;-82
2022/11/02 12:04:49;;;;;;;8.70;2.55;;;19.00;67.60;;;;;;6291741;22;20216;-83
2022/11/02 12:07:26;;;;;;;3.08;1.85;;;19.00;67.30;;;;;;6267090;22;20219;-83
2022/11/02 12:10:14;;;;;;;3.80;1.85;;;18.90;68.50;;;;;;6319402;22;20131;-83
2022/11/02 12:12:57;;;;;;;4.55;1.75;;;19.00;67.80;;;;;;6320162;22;20135;-82
2022/11/02 12:15:36;;;;;;;3.80;1.90;;;19.00;67.60;;;;;;6319013;22;20550;-82
2022/11/02 12:18:13;;;;;;;3.75;1.90;;;19.00;67.60;;;;;;6315857;22;20158;-84
2022/11/02 12:20:56;;;;;;;3.40;1.92;;;18.90;68.00;;;;;;6315175;22;20494;-83
2022/11/02 12:23:52;;;;;;;7.85;2.25;;;19.00;67.80;;;;;;6289377;22;20156;-83
2022/11/02 12:26:42;;;;;;;5.07;1.98;;;19.00;68.60;;;;;;6315710;22;20536;-84
2022/11/02 12:29:42;;;;;;;3.45;2.08;;;18.90;67.70;;;;;;6314908;22;20575;-82
2022/11/02 12:32:27;;;;;;;5.72;2.03;;;19.00;67.50;;;;;;6316223;22;20560;-84
2022/11/02 12:35:14;;;;;;;6.47;2.33;;;18.90;67.80;;;;;;6289498;22;20547;-84
2022/11/02 12:38:22;;;;;;;4.80;2.00;;;19.00;67.40;;;;;;6314386;22;20135;-84
2022/11/02 12:41:03;;;;;;;4.40;2.13;;;19.00;67.70;;;;;;6288790;22;20250;-83
2022/11/02 12:43:42;;;;;;;3.33;1.95;;;19.00;67.60;;;;;;6290866;22;20174;-82
2022/11/02 12:46:42;;;;;;;7.40;1.90;;;19.00;67.70;;;;;;6264861;22;20521;-83
2022/11/02 12:49:40;;;;;;;4.15;2.03;;;19.00;67.40;;;;;;6290717;22;20148;-84
2022/11/02 12:52:19;;;;;;;4.53;2.10;;;19.00;67.60;;;;;;6290211;22;20148;-83
2022/11/02 12:54:49;;;;;;;7.72;2.38;;;19.00;68.20;;;;;;6314195;22;20148;-80
2022/11/02 12:57:20;;;;;;;3.65;2.10;;;19.10;67.80;;;;;;6287622;22;20265;-82
2022/11/02 12:59:56;;;;;;;4.55;2.25;;;19.00;67.70;;;;;;6237283;22;20163;-82
2022/11/02 13:02:46;;;;;;;8.75;2.03;;;19.00;67.80;;;;;;6261229;22;20156;-82
2022/11/02 13:05:20;;;;;;;6.63;2.20;;;19.00;67.40;;;;;;6313877;22;20579;-83
2022/11/02 13:07:57;;;;;;;4.20;2.00;;;19.00;67.40;;;;;;6208896;22;20198;-83
2022/11/02 13:10:34;;;;;;;6.10;2.10;;;19.00;67.70;;;;;;6240922;22;20560;-81
2022/11/02 13:13:07;;;;;;;6.78;2.28;;;19.00;67.70;;;;;;6210617;22;20148;-83
2022/11/02 13:15:38;;;;;;;5.00;1.92;;;19.00;67.70;;;;;;6239126;22;20163;-85
2022/11/02 13:18:22;;;;;;;6.13;2.20;;;19.10;67.00;;;;;;6240428;22;20254;-82
2022/11/02 13:20:54;;;;;;;3.90;2.28;;;19.00;67.30;;;;;;6215714;22;20203;-81
2022/11/02 13:23:34;;;;;;;5.05;2.00;;;19.00;67.60;;;;;;6237464;22;20247;-82